Aérodrome :
LOGIN :

S'inscrire | Disclaimer

   EN    FR    IT 

 










Légende :    VFR   VFR Marginal   IFR   IFR Intensif   IFR Très Intensif
Visi : 
Plafond : 
>= 8 km
>= 3000ft
5 à 8 km
1000 à 3000 ft
1500m à 5 km
500 à 1000 ft
800 à 1500m
200 à 500 ft
< 800m
< 200 ft
Symboles :   Orages  Brouillard  Fortes neiges  Fortes précipitations  Vent > 20 kt
SIGMETs :   Divers  Orages  Givrage  Turbulence  Onde Orograph.  Cendres Volcan.







- Altitude de l'aérodrome : 1504 ft
- Code IATA : PNA


LEPP - Noain Pamplona

DERNIER METAR :
  • 231430Z 34012KT 300V360 9999 FEW040 23/13 Q1016

METARs EXPIRÉS :
  • 231400Z 30004KT 250V340 9999 FEW040 24/10 Q1016
  • 231330Z 27004KT 190V320 9999 FEW050 24/10 Q1016
  • 231300Z 29003KT 230V020 9999 FEW050 23/12 Q1017
  • 231230Z 28003KT 230V330 9999 FEW050 22/10 Q1017
  • 231200Z 29003KT 230V350 9999 FEW050 22/11 Q1017
  • 231130Z 29003KT 150V320 9999 FEW050 22/11 Q1018

TAF TAF LEPP
Valide du 23 à 15h jusqu'au 24 à 15h UTC


231400Z 2315/2415 34006KT 9999 SCT040 TX24/2315Z TN10/2406Z
PROB40
TEMPO 2315/2318 30016KT SHRA BKN025TCU
PROB30
TEMPO 2315/2322 4000 SHRA TS SCT025CB
TEMPO 2320/2410 4000 -RA SHRA BKN010 BKN020TCU
PROB40
TEMPO 2322/2407 2000 +SHRA TS BKN005 BKN020CB
TEMPO 2412/2415 33018KT
Pas de NOTAMs connus pour ce terrain.



MET'MAP, la Météo Aéronautique d'un coup d'oeil ! - Copyright ORBIFLY Décembre 2007 - Disclaimer

ORBIFLY MET'MAP TEAM :

Programmation & Développement : Alexandra Zaïnal
Conception & Développement : Baudouin d'Aumeries
Co-Programmation & Développement : Marc-Olivier Méhu
Soutien technique & logistique : Manuel Goepfert

Contact : metmap@orbifly.com




SOURCES & CREDITS :

   NOAA